createdAt,value
2018-07-07T00:00:08.975Z,0.00
2018-07-07T00:01:09.001Z,0.00
2018-07-07T00:02:09.029Z,0.00
2018-07-07T00:03:09.049Z,0.00
2018-07-07T00:04:09.069Z,0.00
2018-07-07T00:05:09.109Z,0.00
2018-07-07T00:06:09.122Z,0.00
2018-07-07T00:07:09.145Z,0.00
2018-07-07T00:08:09.173Z,0.00
2018-07-07T00:09:09.196Z,0.00
2018-07-07T00:10:09.226Z,0.00
2018-07-07T00:11:09.240Z,0.00
2018-07-07T00:12:09.265Z,0.00
2018-07-07T00:13:09.284Z,0.00
2018-07-07T00:14:09.311Z,0.00
2018-07-07T00:15:09.342Z,0.00
2018-07-07T00:16:09.359Z,0.00
2018-07-07T00:17:09.383Z,0.00
2018-07-07T00:18:09.412Z,0.00
2018-07-07T00:19:09.442Z,0.00
2018-07-07T00:20:09.461Z,0.00
2018-07-07T00:21:09.484Z,0.00
2018-07-07T00:22:09.508Z,0.00
2018-07-07T00:23:09.532Z,0.00
2018-07-07T00:24:09.554Z,0.00
2018-07-07T00:25:09.583Z,0.00
2018-07-07T00:26:09.601Z,0.00
2018-07-07T00:27:09.685Z,0.00
2018-07-07T00:28:09.651Z,0.00
2018-07-07T00:29:09.674Z,0.00
2018-07-07T00:30:09.701Z,0.00
2018-07-07T00:31:09.721Z,0.00
2018-07-07T00:32:09.755Z,0.00
2018-07-07T00:33:09.769Z,0.00
2018-07-07T00:34:09.789Z,0.00
2018-07-07T00:35:09.823Z,0.00
2018-07-07T00:36:09.838Z,0.00
2018-07-07T00:37:09.869Z,0.00
2018-07-07T00:38:09.892Z,0.00
2018-07-07T00:39:09.917Z,0.00
2018-07-07T00:40:09.940Z,0.00
2018-07-07T00:41:09.965Z,0.00
2018-07-07T00:42:09.985Z,0.00
2018-07-07T00:43:10.009Z,0.00
2018-07-07T00:44:10.039Z,0.00
2018-07-07T00:45:10.057Z,0.00
2018-07-07T00:46:10.079Z,0.00
2018-07-07T00:47:10.103Z,0.00
2018-07-07T00:48:10.136Z,0.00
2018-07-07T00:49:10.156Z,0.00
2018-07-07T00:50:10.178Z,0.00
2018-07-07T00:51:10.200Z,0.00
2018-07-07T00:52:10.224Z,0.00
2018-07-07T00:53:10.249Z,0.00
2018-07-07T00:54:10.273Z,0.00
2018-07-07T00:55:10.300Z,0.00
2018-07-07T00:56:10.318Z,0.00
2018-07-07T00:57:10.342Z,0.00
2018-07-07T00:58:10.364Z,0.00
2018-07-07T00:59:10.399Z,0.00
2018-07-07T01:00:10.416Z,0.00
2018-07-07T01:01:10.440Z,0.00
2018-07-07T01:02:10.462Z,0.00
2018-07-07T01:03:10.489Z,0.00
2018-07-07T01:04:10.515Z,0.00
2018-07-07T01:05:10.538Z,0.00
2018-07-07T01:06:10.558Z,0.00
2018-07-07T01:07:10.586Z,0.00
2018-07-07T01:08:10.608Z,0.00
2018-07-07T01:09:10.634Z,0.00
2018-07-07T01:10:10.659Z,0.00
2018-07-07T01:11:10.688Z,0.00
2018-07-07T01:12:10.709Z,0.00
2018-07-07T01:13:10.724Z,0.00
2018-07-07T01:14:10.755Z,0.00
2018-07-07T01:15:10.771Z,0.00
2018-07-07T01:16:10.799Z,0.00
2018-07-07T01:17:10.823Z,0.00
2018-07-07T01:18:10.849Z,0.00
2018-07-07T01:19:10.885Z,0.00
2018-07-07T01:20:10.888Z,0.00
2018-07-07T01:21:10.924Z,0.00
2018-07-07T01:22:10.940Z,0.00
2018-07-07T01:23:10.966Z,0.00
2018-07-07T01:24:10.993Z,0.00
2018-07-07T01:25:11.012Z,0.00
2018-07-07T01:26:11.042Z,0.00
2018-07-07T01:27:11.062Z,0.00
2018-07-07T01:28:11.090Z,0.00
2018-07-07T01:29:11.120Z,0.00
2018-07-07T01:30:11.134Z,0.00
2018-07-07T01:31:11.156Z,0.00
2018-07-07T01:32:11.182Z,0.00
2018-07-07T01:33:11.208Z,0.00
2018-07-07T01:34:11.230Z,0.00
2018-07-07T01:35:11.256Z,0.00
2018-07-07T01:36:11.278Z,0.00
2018-07-07T01:37:11.304Z,0.00
2018-07-07T01:38:11.321Z,0.00
2018-07-07T01:39:11.346Z,0.00
2018-07-07T01:40:11.377Z,0.00
2018-07-07T01:41:11.401Z,0.00
2018-07-07T01:42:11.419Z,0.00
2018-07-07T01:43:11.448Z,0.00
2018-07-07T01:44:11.468Z,0.00
2018-07-07T01:45:11.493Z,0.00
2018-07-07T01:46:11.516Z,0.00
2018-07-07T01:47:11.534Z,0.00
2018-07-07T01:48:11.568Z,0.00
2018-07-07T01:49:11.590Z,0.00
2018-07-07T01:50:11.610Z,0.00
2018-07-07T01:51:11.637Z,0.00
2018-07-07T01:52:11.656Z,0.00
2018-07-07T01:53:11.684Z,0.00
2018-07-07T01:54:11.712Z,0.00
2018-07-07T01:55:11.736Z,0.00
2018-07-07T01:56:11.758Z,0.00
2018-07-07T01:57:11.774Z,0.00
2018-07-07T01:58:11.807Z,0.00
2018-07-07T01:59:11.829Z,0.00
2018-07-07T02:00:11.848Z,0.00
2018-07-07T02:01:11.882Z,0.00
2018-07-07T02:02:11.894Z,0.00
2018-07-07T02:03:11.925Z,0.00
2018-07-07T02:04:11.943Z,0.00
2018-07-07T02:05:11.975Z,0.00
2018-07-07T02:06:11.989Z,0.00
2018-07-07T02:07:12.014Z,0.00
2018-07-07T02:08:12.045Z,0.00
2018-07-07T02:09:12.059Z,4.00
2018-07-07T02:10:12.086Z,4.00
2018-07-07T02:11:12.111Z,4.00
2018-07-07T02:12:12.138Z,4.00
2018-07-07T02:13:12.160Z,4.00
2018-07-07T02:14:12.185Z,4.00
2018-07-07T02:15:12.208Z,4.00
2018-07-07T02:16:12.230Z,0.00
2018-07-07T02:17:12.249Z,0.00
2018-07-07T02:18:12.278Z,4.00
2018-07-07T02:19:12.304Z,4.00
2018-07-07T02:20:12.328Z,4.00
2018-07-07T02:21:12.361Z,4.00
2018-07-07T02:22:12.369Z,8.00
2018-07-07T02:23:12.399Z,4.00
2018-07-07T02:24:12.426Z,4.00
2018-07-07T02:25:12.446Z,8.00
2018-07-07T02:26:12.471Z,8.00
2018-07-07T02:27:12.492Z,8.00
2018-07-07T02:28:12.518Z,8.00
2018-07-07T02:29:12.570Z,8.00
2018-07-07T02:30:12.568Z,12.00
2018-07-07T02:31:12.585Z,12.00
2018-07-07T02:32:12.611Z,16.00
2018-07-07T02:33:12.638Z,16.00
2018-07-07T02:34:12.657Z,20.00
2018-07-07T02:35:12.687Z,20.00
2018-07-07T02:36:12.705Z,20.00
2018-07-07T02:37:12.728Z,24.00
2018-07-07T02:38:12.750Z,28.00
2018-07-07T02:39:12.782Z,32.00
2018-07-07T02:40:12.800Z,32.00
2018-07-07T02:41:12.824Z,36.00
2018-07-07T02:42:12.848Z,40.00
2018-07-07T02:43:12.872Z,44.00
2018-07-07T02:44:12.895Z,48.00
2018-07-07T02:45:12.930Z,52.00
2018-07-07T02:46:13.021Z,60.00
2018-07-07T02:47:12.963Z,68.00
2018-07-07T02:48:12.991Z,72.00
2018-07-07T02:49:13.016Z,80.00
2018-07-07T02:50:13.039Z,88.00
2018-07-07T02:51:13.063Z,96.00
2018-07-07T02:52:13.084Z,108.00
2018-07-07T02:53:13.111Z,116.00
2018-07-07T02:54:13.140Z,128.00
2018-07-07T02:55:13.155Z,140.00
2018-07-07T02:56:13.184Z,152.00
2018-07-07T02:57:13.202Z,168.00
2018-07-07T02:58:13.226Z,176.00
2018-07-07T02:59:13.256Z,192.00
2018-07-07T03:00:13.276Z,204.00
2018-07-07T03:01:13.302Z,220.00
2018-07-07T03:02:13.325Z,236.00
2018-07-07T03:03:13.357Z,248.00
2018-07-07T03:04:13.368Z,268.00
2018-07-07T03:05:13.397Z,284.00
2018-07-07T03:06:13.414Z,300.00
2018-07-07T03:07:13.443Z,316.00
2018-07-07T03:08:13.467Z,336.00
2018-07-07T03:09:13.487Z,356.00
2018-07-07T03:10:13.516Z,376.00
2018-07-07T03:11:13.539Z,396.00
2018-07-07T03:12:13.569Z,420.00
2018-07-07T03:13:13.586Z,444.00
2018-07-07T03:14:13.611Z,472.00
2018-07-07T03:15:13.634Z,504.00
2018-07-07T03:16:13.655Z,540.00
2018-07-07T03:17:13.681Z,564.00
2018-07-07T03:18:13.700Z,588.00
2018-07-07T03:19:13.732Z,612.00
2018-07-07T03:20:13.765Z,640.00
2018-07-07T03:21:13.774Z,668.00
2018-07-07T03:22:13.801Z,696.00
2018-07-07T03:23:13.822Z,720.00
2018-07-07T03:24:13.849Z,740.00
2018-07-07T03:25:13.875Z,756.00
2018-07-07T03:26:13.895Z,780.00
2018-07-07T03:27:13.921Z,792.00
2018-07-07T03:28:13.947Z,812.00
2018-07-07T03:29:13.968Z,832.00
2018-07-07T03:30:13.997Z,856.00
2018-07-07T03:31:14.017Z,876.00
2018-07-07T03:32:14.046Z,900.00
2018-07-07T03:33:14.065Z,920.00
2018-07-07T03:34:14.089Z,940.00
2018-07-07T03:35:14.108Z,972.00
2018-07-07T03:36:14.136Z,996.00
2018-07-07T03:37:14.160Z,1028.00
2018-07-07T03:38:14.180Z,1064.00
2018-07-07T03:39:14.207Z,1104.00
2018-07-07T03:40:14.234Z,1132.00
2018-07-07T03:41:14.255Z,1156.00
2018-07-07T03:42:14.291Z,1180.00
2018-07-07T03:43:14.302Z,1184.00
2018-07-07T03:44:14.326Z,1196.00
2018-07-07T03:45:14.350Z,1216.00
2018-07-07T03:46:14.373Z,1240.00
2018-07-07T03:47:14.393Z,1216.00
2018-07-07T03:48:14.419Z,1304.00
2018-07-07T03:49:14.499Z,1336.00
2018-07-07T03:50:14.474Z,1376.00
2018-07-07T03:51:14.497Z,1420.00
2018-07-07T03:52:14.521Z,1464.00
2018-07-07T03:53:14.535Z,1504.00
2018-07-07T03:54:14.564Z,1552.00
2018-07-07T03:55:14.583Z,1604.00
2018-07-07T03:56:14.613Z,1656.00
2018-07-07T03:57:14.633Z,1704.00
2018-07-07T03:58:14.655Z,1752.00
2018-07-07T03:59:14.687Z,1792.00
2018-07-07T04:00:14.703Z,1828.00
2018-07-07T04:01:14.734Z,1876.00
2018-07-07T04:02:14.759Z,1932.00
2018-07-07T04:03:14.779Z,1992.00
2018-07-07T04:04:14.807Z,2048.00
2018-07-07T04:05:14.821Z,2092.00
2018-07-07T04:06:14.848Z,2132.00
2018-07-07T04:07:14.881Z,2152.00
2018-07-07T04:08:14.893Z,2180.00
2018-07-07T04:09:14.921Z,2196.00
2018-07-07T04:10:14.941Z,2224.00
2018-07-07T04:11:14.962Z,2256.00
2018-07-07T04:12:14.995Z,2276.00
2018-07-07T04:13:15.017Z,2288.00
2018-07-07T04:14:15.037Z,2316.00
2018-07-07T04:15:15.061Z,2340.00
2018-07-07T04:16:15.092Z,2356.00
2018-07-07T04:17:15.110Z,2376.00
2018-07-07T04:18:15.139Z,2396.00
2018-07-07T04:19:15.161Z,2412.00
2018-07-07T04:20:15.185Z,2432.00
2018-07-07T04:21:15.213Z,2448.00
2018-07-07T04:22:15.232Z,2468.00
2018-07-07T04:23:15.263Z,2484.00
2018-07-07T04:24:15.279Z,2500.00
2018-07-07T04:25:15.304Z,2520.00
2018-07-07T04:26:15.325Z,2540.00
2018-07-07T04:27:15.354Z,2552.00
2018-07-07T04:28:15.375Z,2564.00
2018-07-07T04:29:15.399Z,2592.00
2018-07-07T04:30:15.421Z,2600.00
2018-07-07T04:31:15.443Z,2612.00
2018-07-07T04:32:15.467Z,2632.00
2018-07-07T04:33:15.495Z,2652.00
2018-07-07T04:34:15.520Z,2660.00
2018-07-07T04:35:15.542Z,2676.00
2018-07-07T04:36:15.569Z,2692.00
2018-07-07T04:37:15.589Z,2708.00
2018-07-07T04:38:15.610Z,2720.00
2018-07-07T04:39:15.635Z,2732.00
2018-07-07T04:40:15.659Z,2748.00
2018-07-07T04:41:15.685Z,2760.00
2018-07-07T04:42:15.705Z,2772.00
2018-07-07T04:43:15.732Z,2800.00
2018-07-07T04:44:15.757Z,2804.00
2018-07-07T04:45:15.781Z,2812.00
2018-07-07T04:46:15.801Z,2824.00
2018-07-07T04:47:15.831Z,2852.00
2018-07-07T04:48:15.859Z,2856.00
2018-07-07T04:49:15.879Z,2856.00
2018-07-07T04:50:15.913Z,2880.00
2018-07-07T04:51:15.925Z,2880.00
2018-07-07T04:52:15.959Z,2900.00
2018-07-07T04:53:15.976Z,2900.00
2018-07-07T04:54:15.990Z,2928.00
2018-07-07T04:55:16.019Z,2928.00
2018-07-07T04:56:16.045Z,2952.00
2018-07-07T04:57:16.080Z,2952.00
2018-07-07T04:58:16.097Z,2960.00
2018-07-07T04:59:16.112Z,2976.00
2018-07-07T05:00:16.139Z,2988.00
2018-07-07T05:01:16.163Z,2996.00
2018-07-07T05:02:16.183Z,3004.00
2018-07-07T05:03:16.212Z,3024.00
2018-07-07T05:04:16.234Z,3036.00
2018-07-07T05:05:16.261Z,3040.00
2018-07-07T05:06:16.285Z,3036.00
2018-07-07T05:07:16.309Z,3056.00
2018-07-07T05:08:16.328Z,3060.00
2018-07-07T05:09:16.356Z,3072.00
2018-07-07T05:10:16.380Z,3084.00
2018-07-07T05:11:16.404Z,3108.00
2018-07-07T05:12:16.432Z,3108.00
2018-07-07T05:13:16.448Z,3112.00
2018-07-07T05:14:16.474Z,3124.00
2018-07-07T05:15:16.504Z,3120.00
2018-07-07T05:16:16.525Z,3132.00
2018-07-07T05:17:16.559Z,3140.00
2018-07-07T05:18:16.570Z,3156.00
2018-07-07T05:19:16.598Z,3156.00
2018-07-07T05:20:16.621Z,3168.00
2018-07-07T05:21:16.644Z,3168.00
2018-07-07T05:22:16.672Z,3196.00
2018-07-07T05:23:16.698Z,3196.00
2018-07-07T05:24:16.720Z,3228.00
2018-07-07T05:25:16.742Z,3208.00
2018-07-07T05:26:16.768Z,3212.00
2018-07-07T05:27:16.797Z,3224.00
2018-07-07T05:28:16.813Z,3236.00
2018-07-07T05:29:16.846Z,3248.00
2018-07-07T05:30:16.868Z,3252.00
2018-07-07T05:31:16.903Z,3248.00
2018-07-07T05:32:16.917Z,3288.00
2018-07-07T05:33:16.932Z,3276.00
2018-07-07T05:34:16.956Z,3284.00
2018-07-07T05:35:16.980Z,3284.00
2018-07-07T05:36:17.022Z,3296.00
2018-07-07T05:37:17.117Z,3312.00
2018-07-07T05:38:17.056Z,3316.00
2018-07-07T05:39:17.080Z,3320.00
2018-07-07T05:40:17.106Z,3332.00
2018-07-07T05:41:17.125Z,3340.00
2018-07-07T05:42:17.153Z,3348.00
2018-07-07T05:43:17.179Z,3348.00
2018-07-07T05:44:17.204Z,3344.00
2018-07-07T05:45:17.220Z,3352.00
2018-07-07T05:46:17.246Z,3360.00
2018-07-07T05:47:17.271Z,3372.00
2018-07-07T05:48:17.298Z,3372.00
2018-07-07T05:49:17.318Z,3388.00
2018-07-07T05:50:17.344Z,3412.00
2018-07-07T05:51:17.370Z,3400.00
2018-07-07T05:52:17.392Z,3428.00
2018-07-07T05:53:17.416Z,3448.00
2018-07-07T05:54:17.440Z,3472.00
2018-07-07T05:55:17.465Z,3572.00
2018-07-07T05:56:17.494Z,3608.00
2018-07-07T05:57:17.549Z,3756.00
2018-07-07T05:58:17.536Z,3800.00
2018-07-07T05:59:17.561Z,3640.00
2018-07-07T06:00:17.587Z,3692.00
2018-07-07T06:01:17.612Z,3644.00
2018-07-07T06:02:17.634Z,3656.00
2018-07-07T06:03:17.660Z,3704.00
2018-07-07T06:04:17.688Z,3728.00
2018-07-07T06:05:17.711Z,3560.00
2018-07-07T06:06:17.735Z,3612.00
2018-07-07T06:07:17.757Z,3704.00
2018-07-07T06:08:17.782Z,3584.00
2018-07-07T06:09:17.806Z,3600.00
2018-07-07T06:10:17.828Z,3612.00
2018-07-07T06:11:17.852Z,3580.00
2018-07-07T06:12:17.879Z,3628.00
2018-07-07T06:13:17.903Z,3612.00
2018-07-07T06:14:17.931Z,3692.00
2018-07-07T06:15:17.953Z,3648.00
2018-07-07T06:16:17.970Z,3688.00
2018-07-07T06:17:17.997Z,3832.00
2018-07-07T06:18:18.036Z,3968.00
2018-07-07T06:19:18.048Z,3896.00
2018-07-07T06:20:18.073Z,3744.00
2018-07-07T06:21:18.101Z,3780.00
2018-07-07T06:22:18.125Z,3924.00
2018-07-07T06:23:18.142Z,4056.00
2018-07-07T06:24:18.170Z,4132.00
2018-07-07T06:25:18.195Z,3652.00
2018-07-07T06:26:18.219Z,3588.00
2018-07-07T06:27:18.245Z,3644.00
2018-07-07T06:28:18.270Z,3736.00
2018-07-07T06:29:18.294Z,3752.00
2018-07-07T06:30:18.323Z,3652.00
2018-07-07T06:31:18.340Z,3692.00
2018-07-07T06:32:18.374Z,3648.00
2018-07-07T06:33:18.387Z,3688.00
2018-07-07T06:34:18.410Z,3784.00
2018-07-07T06:35:18.445Z,3764.00
2018-07-07T06:36:18.461Z,3656.00
2018-07-07T06:37:18.488Z,3728.00
2018-07-07T06:38:18.510Z,3748.00
2018-07-07T06:39:18.538Z,3700.00
2018-07-07T06:40:18.557Z,3712.00
2018-07-07T06:41:18.584Z,3712.00
2018-07-07T06:42:18.613Z,3480.00
2018-07-07T06:43:18.633Z,3668.00
2018-07-07T06:44:18.655Z,3624.00
2018-07-07T06:45:18.681Z,3684.00
2018-07-07T06:46:18.710Z,3688.00
2018-07-07T06:47:18.732Z,3800.00
2018-07-07T06:48:18.757Z,3940.00
2018-07-07T06:49:18.794Z,3908.00
2018-07-07T06:50:18.799Z,3800.00
2018-07-07T06:51:18.825Z,3752.00
2018-07-07T06:52:18.851Z,3684.00
2018-07-07T06:53:18.874Z,3812.00
2018-07-07T06:54:18.902Z,3856.00
2018-07-07T06:55:18.929Z,3828.00
2018-07-07T06:56:18.948Z,3816.00
2018-07-07T06:57:18.972Z,3816.00
2018-07-07T06:58:18.997Z,3892.00
2018-07-07T06:59:19.027Z,4032.00
2018-07-07T07:00:19.049Z,4052.00
2018-07-07T07:01:19.070Z,4036.00
2018-07-07T07:02:19.098Z,3972.00
2018-07-07T07:03:19.155Z,4000.00
2018-07-07T07:04:19.146Z,4040.00
2018-07-07T07:05:19.171Z,4180.00
2018-07-07T07:06:19.207Z,4348.00
2018-07-07T07:07:19.222Z,4300.00
2018-07-07T07:08:19.253Z,4192.00
2018-07-07T07:09:19.272Z,4284.00
2018-07-07T07:10:19.291Z,4508.00
2018-07-07T07:11:19.322Z,4596.00
2018-07-07T07:12:19.341Z,4736.00
2018-07-07T07:13:19.374Z,4948.00
2018-07-07T07:14:19.389Z,5244.00
2018-07-07T07:15:19.416Z,5600.00
2018-07-07T07:16:19.440Z,5780.00
2018-07-07T07:17:19.469Z,5880.00
2018-07-07T07:18:19.490Z,5912.00
2018-07-07T07:19:19.520Z,5940.00
2018-07-07T07:20:19.539Z,6588.00
2018-07-07T07:21:19.563Z,7232.00
2018-07-07T07:22:19.600Z,7408.00
2018-07-07T07:23:19.614Z,7508.00
2018-07-07T07:24:19.642Z,7824.00
2018-07-07T07:25:19.668Z,8012.00
2018-07-07T07:26:19.732Z,8024.00
2018-07-07T07:27:19.714Z,7216.00
2018-07-07T07:28:19.743Z,5692.00
2018-07-07T07:29:19.768Z,5212.00
2018-07-07T07:30:19.789Z,5412.00
2018-07-07T07:31:19.812Z,5532.00
2018-07-07T07:32:19.844Z,5044.00
2018-07-07T07:33:19.862Z,4764.00
2018-07-07T07:34:19.890Z,5044.00
2018-07-07T07:35:19.914Z,5204.00
2018-07-07T07:36:19.950Z,5216.00
2018-07-07T07:37:19.974Z,5092.00
2018-07-07T07:38:19.990Z,5088.00
2018-07-07T07:39:20.018Z,4880.00
2018-07-07T07:40:20.040Z,4504.00
2018-07-07T07:41:20.068Z,4892.00
2018-07-07T07:42:20.090Z,5052.00
2018-07-07T07:43:20.173Z,4600.00
2018-07-07T07:44:20.143Z,4764.00
2018-07-07T07:45:20.180Z,4776.00
2018-07-07T07:46:20.193Z,4740.00
2018-07-07T07:47:20.220Z,4652.00
2018-07-07T07:48:20.242Z,4456.00
2018-07-07T07:49:20.274Z,4336.00
2018-07-07T07:50:20.293Z,3932.00
2018-07-07T07:51:20.329Z,4000.00
2018-07-07T07:52:20.353Z,3976.00
2018-07-07T07:53:20.369Z,3960.00
2018-07-07T07:54:20.394Z,3968.00
2018-07-07T07:55:20.420Z,3972.00
2018-07-07T07:56:20.446Z,3916.00
2018-07-07T07:57:20.470Z,3908.00
2018-07-07T07:58:20.494Z,3984.00
2018-07-07T07:59:20.518Z,4024.00
2018-07-07T08:00:20.544Z,4112.00
2018-07-07T08:01:20.572Z,4076.00
2018-07-07T08:02:20.594Z,4120.00
2018-07-07T08:03:20.615Z,4336.00
2018-07-07T08:04:20.642Z,4780.00
2018-07-07T08:05:20.676Z,5380.00
2018-07-07T08:06:20.698Z,4624.00
2018-07-07T08:07:20.719Z,4184.00
2018-07-07T08:08:20.745Z,4216.00
2018-07-07T08:09:20.782Z,4096.00
2018-07-07T08:10:20.795Z,4216.00
2018-07-07T08:11:20.825Z,4524.00
2018-07-07T08:12:20.862Z,4700.00
2018-07-07T08:13:20.888Z,4840.00
2018-07-07T08:14:20.894Z,5188.00
2018-07-07T08:15:20.925Z,5572.00
2018-07-07T08:16:20.947Z,5620.00
2018-07-07T08:17:20.973Z,5680.00
2018-07-07T08:18:20.997Z,5564.00
2018-07-07T08:19:21.025Z,5572.00
2018-07-07T08:20:21.050Z,5764.00
2018-07-07T08:21:21.084Z,4664.00
2018-07-07T08:22:21.101Z,4360.00
2018-07-07T08:23:21.121Z,4212.00
2018-07-07T08:24:21.145Z,3992.00
2018-07-07T08:25:21.172Z,4124.00
2018-07-07T08:26:21.199Z,4432.00
2018-07-07T08:27:21.222Z,4608.00
2018-07-07T08:28:21.288Z,4300.00
2018-07-07T08:29:21.274Z,4180.00
2018-07-07T08:30:21.293Z,4176.00
2018-07-07T08:31:21.322Z,4176.00
2018-07-07T08:32:21.347Z,4216.00
2018-07-07T08:33:21.369Z,4244.00
2018-07-07T08:34:21.430Z,4272.00
2018-07-07T08:35:21.415Z,4332.00
2018-07-07T08:36:21.469Z,4368.00
2018-07-07T08:37:21.470Z,4384.00
2018-07-07T08:38:21.504Z,4404.00
2018-07-07T08:39:21.521Z,4364.00
2018-07-07T08:40:21.551Z,4436.00
2018-07-07T08:41:21.570Z,4448.00
2018-07-07T08:42:21.599Z,4364.00
2018-07-07T08:43:21.634Z,4464.00
2018-07-07T08:44:21.640Z,4928.00
2018-07-07T08:45:21.671Z,5176.00
2018-07-07T08:46:21.696Z,4832.00
2018-07-07T08:47:21.721Z,4892.00
2018-07-07T08:48:21.746Z,4776.00
2018-07-07T08:49:21.839Z,4736.00
2018-07-07T08:50:21.796Z,5088.00
2018-07-07T08:51:21.822Z,4064.00
2018-07-07T08:52:21.848Z,4344.00
2018-07-07T08:53:21.876Z,4288.00
2018-07-07T08:54:21.898Z,4312.00
2018-07-07T08:55:21.921Z,4332.00
2018-07-07T08:56:21.964Z,4452.00
2018-07-07T08:57:21.968Z,4644.00
2018-07-07T08:58:22.000Z,4812.00
2018-07-07T08:59:22.022Z,5052.00
2018-07-07T09:00:22.047Z,5224.00
2018-07-07T09:01:22.070Z,5164.00
2018-07-07T09:02:22.098Z,4984.00
2018-07-07T09:03:22.124Z,4840.00
2018-07-07T09:04:22.143Z,4644.00
2018-07-07T09:05:22.176Z,4520.00
2018-07-07T09:06:22.194Z,4428.00
2018-07-07T09:07:22.225Z,4424.00
2018-07-07T09:08:22.251Z,4368.00
2018-07-07T09:09:22.279Z,4448.00
2018-07-07T09:10:22.303Z,4496.00
2018-07-07T09:11:22.330Z,4508.00
2018-07-07T09:12:22.353Z,4548.00
2018-07-07T09:13:22.382Z,4748.00
2018-07-07T09:14:22.502Z,4776.00
2018-07-07T09:15:22.425Z,4848.00
2018-07-07T09:16:22.447Z,4888.00
2018-07-07T09:17:22.479Z,5012.00
2018-07-07T09:18:22.499Z,4692.00
2018-07-07T09:19:22.531Z,4564.00
2018-07-07T09:20:22.780Z,4652.00
2018-07-07T09:21:22.688Z,4860.00
2018-07-07T09:22:22.604Z,5160.00
2018-07-07T09:23:22.624Z,5496.00
2018-07-07T09:24:22.670Z,5180.00
2018-07-07T09:25:22.678Z,5812.00
2018-07-07T09:26:22.704Z,5776.00
2018-07-07T09:27:22.733Z,6272.00
2018-07-07T09:28:22.760Z,6180.00
2018-07-07T09:29:22.779Z,6468.00
2018-07-07T09:30:22.807Z,7044.00
2018-07-07T09:31:22.827Z,8056.00
2018-07-07T09:32:22.859Z,9364.00
2018-07-07T09:33:22.879Z,9176.00
2018-07-07T09:34:22.905Z,6680.00
2018-07-07T09:35:22.933Z,5384.00
2018-07-07T09:36:22.953Z,7208.00
2018-07-07T09:37:22.986Z,8168.00
2018-07-07T09:38:23.014Z,6500.00
2018-07-07T09:39:23.037Z,4816.00
2018-07-07T09:40:23.063Z,4900.00
2018-07-07T09:41:23.084Z,5004.00
2018-07-07T09:42:23.109Z,5068.00
2018-07-07T09:43:23.136Z,5188.00
2018-07-07T09:44:23.160Z,5336.00
2018-07-07T09:45:23.188Z,5728.00
2018-07-07T09:46:23.210Z,5996.00
2018-07-07T09:47:23.239Z,5748.00
2018-07-07T09:48:23.261Z,6060.00
2018-07-07T09:49:23.285Z,6948.00
2018-07-07T09:50:23.314Z,7296.00
2018-07-07T09:51:23.343Z,7196.00
2018-07-07T09:52:23.364Z,7508.00
2018-07-07T09:53:23.388Z,7548.00
2018-07-07T09:54:23.420Z,8264.00
2018-07-07T09:55:23.439Z,7584.00
2018-07-07T09:56:23.516Z,6456.00
2018-07-07T09:57:23.493Z,7660.00
2018-07-07T09:58:23.517Z,8160.00
2018-07-07T09:59:23.543Z,7776.00
2018-07-07T10:00:23.570Z,8560.00
2018-07-07T10:01:23.594Z,6640.00
2018-07-07T10:02:23.627Z,5960.00
2018-07-07T10:03:23.651Z,6232.00
2018-07-07T10:04:23.671Z,6844.00
2018-07-07T10:05:23.699Z,6872.00
2018-07-07T10:06:23.725Z,6868.00
2018-07-07T10:07:23.782Z,7744.00
2018-07-07T10:08:23.781Z,6676.00
2018-07-07T10:09:23.806Z,6364.00
2018-07-07T10:10:23.825Z,7152.00
2018-07-07T10:11:23.854Z,7516.00
2018-07-07T10:12:23.877Z,7292.00
2018-07-07T10:13:23.935Z,8196.00
2018-07-07T10:14:23.928Z,9372.00
2018-07-07T10:15:23.953Z,9652.00
2018-07-07T10:16:23.980Z,10052.00
2018-07-07T10:17:24.007Z,10216.00
2018-07-07T10:18:24.029Z,12044.00
2018-07-07T10:19:24.057Z,10616.00
2018-07-07T10:20:24.090Z,9020.00
2018-07-07T10:21:24.113Z,10164.00
2018-07-07T10:22:24.138Z,11520.00
2018-07-07T10:23:24.156Z,12380.00
2018-07-07T10:24:24.191Z,13672.00
2018-07-07T10:25:24.213Z,12032.00
2018-07-07T10:26:24.270Z,11264.00
2018-07-07T10:27:24.265Z,13496.00
2018-07-07T10:28:24.294Z,13636.00
2018-07-07T10:29:24.317Z,12588.00
2018-07-07T10:30:24.340Z,12860.00
2018-07-07T10:31:24.373Z,13276.00
2018-07-07T10:32:24.404Z,13572.00
2018-07-07T10:33:24.430Z,12456.00
2018-07-07T10:34:24.446Z,12576.00
2018-07-07T10:35:24.480Z,13988.00
2018-07-07T10:36:24.504Z,13772.00
2018-07-07T10:37:24.581Z,11840.00
2018-07-07T10:38:24.554Z,10152.00
2018-07-07T10:39:24.581Z,8308.00
2018-07-07T10:40:24.604Z,8672.00
2018-07-07T10:41:24.631Z,11056.00
2018-07-07T10:42:24.659Z,11916.00
2018-07-07T10:43:24.686Z,10608.00
2018-07-07T10:44:24.715Z,7788.00
2018-07-07T10:45:24.833Z,7456.00
2018-07-07T10:46:24.768Z,6608.00
2018-07-07T10:47:24.806Z,6668.00
2018-07-07T10:48:24.816Z,6676.00
2018-07-07T10:49:24.847Z,6892.00
2018-07-07T10:50:24.871Z,7568.00
2018-07-07T10:51:24.899Z,8696.00
2018-07-07T10:52:24.925Z,8756.00
2018-07-07T10:53:24.952Z,8080.00
2018-07-07T10:54:24.983Z,8668.00
2018-07-07T10:55:25.071Z,8772.00
2018-07-07T10:56:25.029Z,8432.00
2018-07-07T10:57:25.055Z,9224.00
2018-07-07T10:58:25.085Z,9632.00
2018-07-07T10:59:25.118Z,9836.00
2018-07-07T11:00:25.137Z,9888.00
2018-07-07T11:01:25.161Z,10780.00
2018-07-07T11:02:25.188Z,11956.00
2018-07-07T11:03:25.217Z,12744.00
2018-07-07T11:04:25.252Z,14004.00
2018-07-07T11:05:25.267Z,8732.00
2018-07-07T11:06:25.289Z,17060.00
2018-07-07T11:07:25.319Z,20736.00
2018-07-07T11:08:25.347Z,26912.00
2018-07-07T11:09:25.375Z,35328.00
2018-07-07T11:10:25.401Z,39872.00
2018-07-07T11:11:25.429Z,40864.00
2018-07-07T11:12:25.455Z,41760.00
2018-07-07T11:13:25.485Z,43744.00
2018-07-07T11:14:25.552Z,43744.00
2018-07-07T11:15:25.536Z,42688.00
2018-07-07T11:16:25.567Z,42400.00
2018-07-07T11:17:25.593Z,42656.00
2018-07-07T11:18:25.620Z,43072.00
2018-07-07T11:19:25.655Z,36640.00
2018-07-07T11:20:25.683Z,43712.00
2018-07-07T11:21:25.713Z,44960.00
2018-07-07T11:22:25.736Z,45920.00
2018-07-07T11:23:25.767Z,46304.00
2018-07-07T11:24:25.800Z,47264.00
2018-07-07T11:25:25.835Z,47168.00
2018-07-07T11:26:25.861Z,48288.00
2018-07-07T11:27:25.894Z,48384.00
2018-07-07T11:28:25.927Z,48768.00
2018-07-07T11:29:25.955Z,49088.00
2018-07-07T11:30:25.984Z,49600.00
2018-07-07T11:31:26.022Z,47680.00
2018-07-07T11:32:26.053Z,49440.00
2018-07-07T11:33:26.088Z,49568.00
2018-07-07T11:34:26.116Z,51232.00
2018-07-07T11:35:26.146Z,50496.00
2018-07-07T11:36:26.246Z,50688.00
2018-07-07T11:37:26.215Z,50752.00
2018-07-07T11:38:26.246Z,52512.00
2018-07-07T11:39:26.278Z,52992.00
2018-07-07T11:40:26.322Z,53824.00
2018-07-07T11:41:26.350Z,53952.00
2018-07-07T11:42:26.380Z,54816.00
2018-07-07T11:43:26.418Z,54816.00
2018-07-07T11:44:26.450Z,54560.00
2018-07-07T11:45:26.482Z,54592.00
2018-07-07T11:46:26.516Z,53312.00
2018-07-07T11:47:26.552Z,55456.00
2018-07-07T11:48:26.584Z,55424.00
2018-07-07T11:49:26.617Z,55808.00
2018-07-07T11:50:26.656Z,57760.00
2018-07-07T11:51:26.687Z,59328.00
2018-07-07T11:52:26.721Z,58848.00
2018-07-07T11:53:26.754Z,58976.00
2018-07-07T11:54:26.791Z,53600.00
2018-07-07T11:55:26.820Z,59616.00
2018-07-07T11:56:26.863Z,59328.00
2018-07-07T11:57:26.892Z,60832.00
2018-07-07T11:58:26.932Z,62176.00
2018-07-07T11:59:26.965Z,61344.00
2018-07-07T12:00:27.000Z,62176.00
2018-07-07T12:01:27.033Z,63680.00
2018-07-07T12:02:27.073Z,65312.00
2018-07-07T12:03:27.105Z,64704.00
2018-07-07T12:04:27.212Z,65216.00
2018-07-07T12:05:27.175Z,65792.00
2018-07-07T12:06:27.208Z,67136.00
2018-07-07T12:07:27.257Z,67456.00
2018-07-07T12:08:27.304Z,67200.00
2018-07-07T12:09:27.315Z,68448.00
2018-07-07T12:10:27.345Z,66432.00
2018-07-07T12:11:27.448Z,69376.00
2018-07-07T12:12:27.425Z,71488.00
2018-07-07T12:13:27.457Z,71584.00
2018-07-07T12:14:27.491Z,63712.00
2018-07-07T12:15:27.523Z,58272.00
2018-07-07T12:16:27.563Z,56832.00
2018-07-07T12:17:27.610Z,62912.00
2018-07-07T12:18:27.635Z,68288.00
2018-07-07T12:19:27.669Z,72768.00